• Join FlightAware (Why Join?)
  • Login
  • US Flag 
08:19PM EDT


 

Airport Tracker/Info


-or-


 

Live Flight TrackerFlight Track Log ✈ FLG4262 ✈ 17-Sep-2013 ✈ KBGM - KDTW

Flight Track Log - Related Links

Times and Time Zones

All times are in EDT time to prevent confusion due to time zone crossing. See the FLG4262 flight status page for this flight to view local times or setup timezone preferences in your user account.

Time Position Orientation Groundspeed Altitude Reporting Facility
EDT Latitude Longitude Course Direction KTS MPH feet Rate Location/Type
05:27PM 42.2044 -76.1364 292° West 275 316 7,500  Level Cleveland Center
05:28PM 42.2205 -76.3693 294° West  Level Estimated
05:28PM 42.2342 -76.2347 292° West 280 322 10,100  Level Cleveland Center
05:29PM 42.2815 -76.4700 309° West  Level FlightAware Approximate
05:29PM 42.2675 -76.3431 293° West 310 357 11,300  Level Cleveland Center
05:30PM 42.2840 -76.6002 291° West  Level Estimated
05:30PM 42.3072 -76.4747 292° West 342 394 13,300  Level Cleveland Center
05:31PM 42.2864 -76.7303 287° West  Level Estimated
05:31PM 42.3436 -76.5978 292° West 351 404 15,100  Level Cleveland Center
05:32PM 42.3831 -76.7253 293° West 363 418 16,600 1,380 Climbing Cleveland Center
05:34PM 42.4197 -76.8536 291° West 367 422 18,000 1,140 Climbing Cleveland Center
05:35PM 42.4586 -76.9858 292° West 376 433 19,000 1,020 Climbing Cleveland Center
05:36PM 42.5047 -77.1444 292° West 378 435 20,200 960 Climbing Cleveland Center
05:37PM 42.5444 -77.2814 292° West 388 447 21,000 720 Climbing Cleveland Center
05:38PM 42.5847 -77.4208 291° West 397 457 21,800 780 Climbing Cleveland Center
05:39PM 42.6303 -77.5783 292° West 398 458 22,700 780 Climbing Cleveland Center
05:40PM 42.6700 -77.7197 291° West 400 460 23,500 720 Climbing Cleveland Center
05:41PM 42.6956 -77.8619 284° West 416 479 24,300 720 Climbing Cleveland Center
05:42PM 42.6983 -78.0128 271° West 403 464 25,100 720 Climbing Cleveland Center
05:43PM 42.7008 -78.1658 271° West 404 465 25,900 420 Climbing Cleveland Center
05:44PM 42.7036 -78.3528 271° West 413 475 26,000  Climbing Cleveland Center
05:45PM 42.7056 -78.5128 271° West 423 487 26,000  Level Cleveland Center
05:46PM 42.7081 -78.6772 271° West 435 501 26,000  Level Cleveland Center
05:47PM 42.7086 -78.8392 270° West 430 495 26,000  Level Cleveland Center
05:48PM 42.7103 -79.0042 271° West 437 503 26,000  Level Cleveland Center
05:49PM 42.7119 -79.1683 271° West 438 504 26,000  Level Cleveland Center
05:50PM 42.7119 -79.3667 270° West 439 505 26,000  Level Cleveland Center
05:51PM 42.7122 -79.5328 270° West 440 506 26,000  Level Cleveland Center
05:52PM 42.7114 -79.6986 270° West 439 505 26,000  Level Cleveland Center
05:53PM 42.7119 -79.8639 270° West 439 505 26,000  Level Cleveland Center
05:54PM 42.7089 -80.0322 269° West 434 499 26,000  Level Cleveland Center
05:55PM 42.7094 -80.1994 270° West 437 503 26,000  Level Cleveland Center
05:56PM 42.7078 -80.3939 269° West 438 504 26,000  Level Cleveland Center
05:57PM 42.7075 -80.5617 270° West 439 505 26,000 -120 Level Cleveland Center
05:58PM 42.7064 -80.7289 270° West 439 505 25,800 -600 Descending Cleveland Center
05:59PM 42.7033 -80.9017 269° West 451 519 24,800 -1,020 Descending Cleveland Center
06:00PM 42.6850 -81.0731 262° West 454 522 23,800 -1,020 Descending Cleveland Center
06:01PM 42.6653 -81.2439 261° West 455 524 22,800 -1,020 Descending Cleveland Center
06:02PM 42.6456 -81.4119 261° West 450 518 21,800 -1,080 Descending Cleveland Center
06:04PM 42.6236 -81.6050 261° West 444 511 20,600 -960 Descending Cleveland Center
06:05PM 42.6039 -81.7681 261° West 438 504 19,800 -960 Descending Cleveland Center
06:06PM 42.5839 -81.9322 261° West 433 498 18,700 -1,020 Descending Cleveland Center
06:07PM 42.5639 -82.0914 260° West 430 495 17,700 -900 Descending Cleveland Center
06:07PM 42.5533 -82.1900 262° West 428 493 17,300 -1,380 Descending Cleveland Center
06:08PM 42.5453 -82.2461 259° West 422 486 16,300 -2,400 Descending Cleveland Center
06:08PM 42.5400 -82.2958 262° West 386 444 15,600 -2,340 Descending Cleveland Center
06:09PM 42.5283 -82.3858 260° West 389 448 13,900 -2,580 Descending Cleveland Center
06:09PM 42.5217 -82.4381 260° West 370 426 13,000 -1,860 Descending Cleveland Center
06:10PM 42.5106 -82.5219 260° West 372 428 12,000 -900 Descending Cleveland Center
06:10PM 42.4975 -82.5736 251° West 365 420 12,100  Climbing Cleveland Center
06:11PM 42.4608 -82.6789 245° Southwest 267 307 12,000 -660 Descending Cleveland Center
06:12PM 42.4272 -82.7386 233° Southwest 268 308 10,900 -1,320 Descending Cleveland Center
06:12PM 42.4197 -82.7556 239° Southwest 251 289 10,700 -1,380 Descending Cleveland Center
06:13PM 42.3872 -82.8117 232° Southwest 247 284 9,500 -1,380 Descending Cleveland Center
06:13PM 42.3786 -82.8319 240° Southwest 243 280 9,300 -1,440 Descending Cleveland Center
06:14PM 42.3558 -82.9108 249° West 239 275 7,800 -1,380 Descending Cleveland Center
06:15PM 42.3761 -82.9692 295° West 241 277 6,700 -1,380 Descending Cleveland Center
06:15PM 42.3875 -82.9942 302° West 239 275 6,400 -780 Descending Cleveland Center
06:16PM 42.4047 -83.0656 288° West 241 277 5,900 -540 Descending Cleveland Center
06:16PM 42.4064 -83.0761 282° West 219 252 5,900 -1,380 Level Cleveland Center
06:17PM 42.3967 -83.1472 260° West 229 264 4,500 -1,500 Descending Cleveland Center
06:17PM 42.3919 -83.1589 241° Southwest 222 255 4,400 -540 Descending Cleveland Center
06:18PM 42.3661 -83.2125 237° Southwest 213 245 4,000 -420 Descending Cleveland Center
06:18PM 42.3639 -83.2228 254° West 169 194 4,000 -840 Level Cleveland Center
06:19PM 42.3233 -83.2594 214° Southwest 173 199 3,100 -960 Descending Cleveland Center
06:20PM 42.2881 -83.2814 205° Southwest 176 203 2,200 -900 Descending Cleveland Center
06:20PM 42.2814 -83.2875 214° Southwest 155 178 2,200 -780 Level Cleveland Center
06:21PM 42.2531 -83.3086 209° Southwest 158 182 1,400 -840 Descending Cleveland Center
06:21PM 42.2458 -83.3136 207° Southwest 140 161 1,400 -240 Level Cleveland Center
06:22PM 42.2133 -83.3378 209° Southwest 151 174 1,200 -240 Descending Cleveland Center